sensor_id;sensor_type;location;lat;lon;timestamp;temperature;humidity
67748;HTU21D;54543;50.712;6.070;2023-08-24T00:01:15;19.08;76.05
67748;HTU21D;54543;50.712;6.070;2023-08-24T00:03:43;19.05;75.99
67748;HTU21D;54543;50.712;6.070;2023-08-24T00:06:09;19.00;76.07
67748;HTU21D;54543;50.712;6.070;2023-08-24T00:08:36;18.96;76.31
67748;HTU21D;54543;50.712;6.070;2023-08-24T00:11:02;18.93;76.29
67748;HTU21D;54543;50.712;6.070;2023-08-24T00:13:28;18.94;76.19
67748;HTU21D;54543;50.712;6.070;2023-08-24T00:15:54;18.94;75.99
67748;HTU21D;54543;50.712;6.070;2023-08-24T00:18:20;18.92;76.01
67748;HTU21D;54543;50.712;6.070;2023-08-24T00:20:48;18.89;76.09
67748;HTU21D;54543;50.712;6.070;2023-08-24T00:23:14;18.87;76.11
67748;HTU21D;54543;50.712;6.070;2023-08-24T00:25:40;18.84;75.99
67748;HTU21D;54543;50.712;6.070;2023-08-24T00:28:06;18.81;76.26
67748;HTU21D;54543;50.712;6.070;2023-08-24T00:30:32;18.79;76.18
67748;HTU21D;54543;50.712;6.070;2023-08-24T00:32:57;18.74;76.30
67748;HTU21D;54543;50.712;6.070;2023-08-24T00:35:23;18.76;76.18
67748;HTU21D;54543;50.712;6.070;2023-08-24T00:37:49;18.71;76.34
67748;HTU21D;54543;50.712;6.070;2023-08-24T00:40:16;18.71;76.30
67748;HTU21D;54543;50.712;6.070;2023-08-24T00:42:43;18.69;76.31
67748;HTU21D;54543;50.712;6.070;2023-08-24T00:45:10;18.66;76.40
67748;HTU21D;54543;50.712;6.070;2023-08-24T00:47:37;18.64;76.46
67748;HTU21D;54543;50.712;6.070;2023-08-24T00:50:04;18.58;76.65
67748;HTU21D;54543;50.712;6.070;2023-08-24T00:52:31;18.57;76.57
67748;HTU21D;54543;50.712;6.070;2023-08-24T00:54:58;18.56;76.55
67748;HTU21D;54543;50.712;6.070;2023-08-24T00:57:28;18.55;76.71
67748;HTU21D;54543;50.712;6.070;2023-08-24T00:59:55;18.53;76.71
67748;HTU21D;54543;50.712;6.070;2023-08-24T01:02:21;18.53;76.53
67748;HTU21D;54543;50.712;6.070;2023-08-24T01:04:47;18.51;76.35
67748;HTU21D;54543;50.712;6.070;2023-08-24T01:07:13;18.48;76.47
67748;HTU21D;54543;50.712;6.070;2023-08-24T01:09:39;18.41;76.49
67748;HTU21D;54543;50.712;6.070;2023-08-24T01:15:04;18.38;77.43
67748;HTU21D;54543;50.712;6.070;2023-08-24T01:17:35;18.37;76.75
67748;HTU21D;54543;50.712;6.070;2023-08-24T01:20:02;18.29;77.55
67748;HTU21D;54543;50.712;6.070;2023-08-24T01:22:37;18.19;77.75
67748;HTU21D;54543;50.712;6.070;2023-08-24T01:25:07;18.14;77.60
67748;HTU21D;54543;50.712;6.070;2023-08-24T01:27:36;18.12;77.74
67748;HTU21D;54543;50.712;6.070;2023-08-24T01:30:04;18.12;77.92
67748;HTU21D;54543;50.712;6.070;2023-08-24T01:32:32;18.14;77.82
67748;HTU21D;54543;50.712;6.070;2023-08-24T01:34:59;18.18;77.70
67748;HTU21D;54543;50.712;6.070;2023-08-24T01:37:25;18.18;77.82
67748;HTU21D;54543;50.712;6.070;2023-08-24T01:40:12;18.20;79.10
67748;HTU21D;54543;50.712;6.070;2023-08-24T01:42:49;18.21;78.70
67748;HTU21D;54543;50.712;6.070;2023-08-24T01:45:17;18.24;77.71
67748;HTU21D;54543;50.712;6.070;2023-08-24T01:47:45;18.26;77.69
67748;HTU21D;54543;50.712;6.070;2023-08-24T01:50:12;18.30;77.52
67748;HTU21D;54543;50.712;6.070;2023-08-24T01:52:38;18.35;77.49
67748;HTU21D;54543;50.712;6.070;2023-08-24T01:55:05;18.35;77.63
67748;HTU21D;54543;50.712;6.070;2023-08-24T01:57:31;18.36;77.50
67748;HTU21D;54543;50.712;6.070;2023-08-24T01:59:57;18.33;77.95
67748;HTU21D;54543;50.712;6.070;2023-08-24T02:02:23;18.28;79.04
67748;HTU21D;54543;50.712;6.070;2023-08-24T02:04:49;18.25;79.06
67748;HTU21D;54543;50.712;6.070;2023-08-24T02:07:14;18.20;79.34
67748;HTU21D;54543;50.712;6.070;2023-08-24T02:09:40;18.20;79.37
67748;HTU21D;54543;50.712;6.070;2023-08-24T02:12:06;18.18;79.82
67748;HTU21D;54543;50.712;6.070;2023-08-24T02:14:31;18.21;80.06
67748;HTU21D;54543;50.712;6.070;2023-08-24T02:16:57;18.21;79.72
67748;HTU21D;54543;50.712;6.070;2023-08-24T02:19:22;18.20;79.77
67748;HTU21D;54543;50.712;6.070;2023-08-24T02:21:48;18.25;79.40
67748;HTU21D;54543;50.712;6.070;2023-08-24T02:24:14;18.29;79.42
67748;HTU21D;54543;50.712;6.070;2023-08-24T02:26:39;18.34;79.17
67748;HTU21D;54543;50.712;6.070;2023-08-24T02:29:05;18.37;79.24
67748;HTU21D;54543;50.712;6.070;2023-08-24T02:31:31;18.38;79.45
67748;HTU21D;54543;50.712;6.070;2023-08-24T02:33:57;18.37;79.88
67748;HTU21D;54543;50.712;6.070;2023-08-24T02:36:22;18.38;79.47
67748;HTU21D;54543;50.712;6.070;2023-08-24T02:38:48;18.44;79.36
67748;HTU21D;54543;50.712;6.070;2023-08-24T02:41:14;18.52;79.14
67748;HTU21D;54543;50.712;6.070;2023-08-24T02:43:40;18.61;78.72
67748;HTU21D;54543;50.712;6.070;2023-08-24T02:46:07;18.68;78.70
67748;HTU21D;54543;50.712;6.070;2023-08-24T02:48:34;18.74;78.18
67748;HTU21D;54543;50.712;6.070;2023-08-24T02:51:01;18.81;78.03
67748;HTU21D;54543;50.712;6.070;2023-08-24T02:53:28;18.86;77.92
67748;HTU21D;54543;50.712;6.070;2023-08-24T02:55:57;18.92;78.06
67748;HTU21D;54543;50.712;6.070;2023-08-24T02:58:23;18.97;77.84
67748;HTU21D;54543;50.712;6.070;2023-08-24T03:00:48;19.02;77.53
67748;HTU21D;54543;50.712;6.070;2023-08-24T03:03:14;19.03;77.44
67748;HTU21D;54543;50.712;6.070;2023-08-24T03:05:41;19.06;77.37
67748;HTU21D;54543;50.712;6.070;2023-08-24T03:08:07;19.07;77.44
67748;HTU21D;54543;50.712;6.070;2023-08-24T03:10:36;19.06;77.57
67748;HTU21D;54543;50.712;6.070;2023-08-24T03:13:01;19.06;77.40
67748;HTU21D;54543;50.712;6.070;2023-08-24T03:15:29;19.08;77.59
67748;HTU21D;54543;50.712;6.070;2023-08-24T03:17:55;19.11;77.48
67748;HTU21D;54543;50.712;6.070;2023-08-24T03:20:21;19.12;77.64
67748;HTU21D;54543;50.712;6.070;2023-08-24T03:22:47;19.15;77.64
67748;HTU21D;54543;50.712;6.070;2023-08-24T03:25:13;19.15;77.58
67748;HTU21D;54543;50.712;6.070;2023-08-24T03:27:38;19.17;77.50
67748;HTU21D;54543;50.712;6.070;2023-08-24T03:30:05;19.20;77.44
67748;HTU21D;54543;50.712;6.070;2023-08-24T03:32:31;19.20;77.47
67748;HTU21D;54543;50.712;6.070;2023-08-24T03:34:59;19.24;77.70
67748;HTU21D;54543;50.712;6.070;2023-08-24T03:37:25;19.24;77.49
67748;HTU21D;54543;50.712;6.070;2023-08-24T03:39:51;19.24;77.59
67748;HTU21D;54543;50.712;6.070;2023-08-24T03:42:16;19.24;77.83
67748;HTU21D;54543;50.712;6.070;2023-08-24T03:44:42;19.18;78.25
67748;HTU21D;54543;50.712;6.070;2023-08-24T03:47:08;19.16;78.56
67748;HTU21D;54543;50.712;6.070;2023-08-24T03:49:34;19.14;78.88
67748;HTU21D;54543;50.712;6.070;2023-08-24T03:51:59;19.14;79.33
67748;HTU21D;54543;50.712;6.070;2023-08-24T03:54:25;19.14;79.40
67748;HTU21D;54543;50.712;6.070;2023-08-24T03:56:51;19.21;79.40
67748;HTU21D;54543;50.712;6.070;2023-08-24T03:59:16;19.21;79.98
67748;HTU21D;54543;50.712;6.070;2023-08-24T04:01:42;19.18;80.14
67748;HTU21D;54543;50.712;6.070;2023-08-24T04:04:08;19.21;79.88
67748;HTU21D;54543;50.712;6.070;2023-08-24T04:06:33;19.11;80.81
67748;HTU21D;54543;50.712;6.070;2023-08-24T04:08:59;18.99;81.17
67748;HTU21D;54543;50.712;6.070;2023-08-24T04:11:24;18.94;82.15
67748;HTU21D;54543;50.712;6.070;2023-08-24T04:13:50;18.84;83.07
67748;HTU21D;54543;50.712;6.070;2023-08-24T04:16:16;18.80;82.94
67748;HTU21D;54543;50.712;6.070;2023-08-24T04:18:41;18.77;83.32
67748;HTU21D;54543;50.712;6.070;2023-08-24T04:21:07;18.76;83.63
67748;HTU21D;54543;50.712;6.070;2023-08-24T04:23:33;18.78;84.16
67748;HTU21D;54543;50.712;6.070;2023-08-24T04:25:58;18.85;84.05
67748;HTU21D;54543;50.712;6.070;2023-08-24T04:28:24;18.92;83.68
67748;HTU21D;54543;50.712;6.070;2023-08-24T04:30:53;18.98;85.23
67748;HTU21D;54543;50.712;6.070;2023-08-24T04:33:20;19.06;84.46
67748;HTU21D;54543;50.712;6.070;2023-08-24T04:35:49;19.13;84.32
67748;HTU21D;54543;50.712;6.070;2023-08-24T04:38:16;19.18;84.58
67748;HTU21D;54543;50.712;6.070;2023-08-24T04:41:00;19.29;87.35
67748;HTU21D;54543;50.712;6.070;2023-08-24T04:43:26;19.29;83.81
67748;HTU21D;54543;50.712;6.070;2023-08-24T04:45:54;19.32;83.90
67748;HTU21D;54543;50.712;6.070;2023-08-24T04:48:23;19.35;84.73
67748;HTU21D;54543;50.712;6.070;2023-08-24T04:50:50;19.37;84.42
67748;HTU21D;54543;50.712;6.070;2023-08-24T04:53:19;19.38;84.62
67748;HTU21D;54543;50.712;6.070;2023-08-24T04:55:46;19.41;85.19
67748;HTU21D;54543;50.712;6.070;2023-08-24T04:58:12;19.45;84.91
67748;HTU21D;54543;50.712;6.070;2023-08-24T05:00:41;19.47;84.61
67748;HTU21D;54543;50.712;6.070;2023-08-24T05:03:07;19.50;84.36
67748;HTU21D;54543;50.712;6.070;2023-08-24T05:05:33;19.51;84.61
67748;HTU21D;54543;50.712;6.070;2023-08-24T05:08:01;19.53;84.52
67748;HTU21D;54543;50.712;6.070;2023-08-24T05:10:30;19.53;85.36
67748;HTU21D;54543;50.712;6.070;2023-08-24T05:12:56;19.51;85.19
67748;HTU21D;54543;50.712;6.070;2023-08-24T05:15:21;19.52;84.81
67748;HTU21D;54543;50.712;6.070;2023-08-24T05:17:47;19.51;85.19
67748;HTU21D;54543;50.712;6.070;2023-08-24T05:20:12;19.51;85.72
67748;HTU21D;54543;50.712;6.070;2023-08-24T05:22:38;19.51;85.39
67748;HTU21D;54543;50.712;6.070;2023-08-24T05:25:04;19.52;85.43
67748;HTU21D;54543;50.712;6.070;2023-08-24T05:27:30;19.54;85.31
67748;HTU21D;54543;50.712;6.070;2023-08-24T05:29:56;19.53;85.24
67748;HTU21D;54543;50.712;6.070;2023-08-24T05:32:21;19.53;85.20
67748;HTU21D;54543;50.712;6.070;2023-08-24T05:34:47;19.52;85.55
67748;HTU21D;54543;50.712;6.070;2023-08-24T05:37:13;19.48;85.58
67748;HTU21D;54543;50.712;6.070;2023-08-24T05:39:38;19.47;85.58
67748;HTU21D;54543;50.712;6.070;2023-08-24T05:42:05;19.50;85.31
67748;HTU21D;54543;50.712;6.070;2023-08-24T05:44:30;19.53;85.03
67748;HTU21D;54543;50.712;6.070;2023-08-24T05:46:56;19.57;84.65
67748;HTU21D;54543;50.712;6.070;2023-08-24T05:49:24;19.58;84.84
67748;HTU21D;54543;50.712;6.070;2023-08-24T05:51:52;19.60;84.66
67748;HTU21D;54543;50.712;6.070;2023-08-24T05:54:21;19.65;84.64
67748;HTU21D;54543;50.712;6.070;2023-08-24T05:56:49;19.70;84.52
67748;HTU21D;54543;50.712;6.070;2023-08-24T05:59:15;19.74;84.05
67748;HTU21D;54543;50.712;6.070;2023-08-24T06:01:41;19.80;84.03
67748;HTU21D;54543;50.712;6.070;2023-08-24T06:04:07;19.86;83.80
67748;HTU21D;54543;50.712;6.070;2023-08-24T06:06:36;19.96;83.90
67748;HTU21D;54543;50.712;6.070;2023-08-24T06:09:03;20.02;83.66
67748;HTU21D;54543;50.712;6.070;2023-08-24T06:11:33;20.09;83.34
67748;HTU21D;54543;50.712;6.070;2023-08-24T06:13:59;20.17;83.09
67748;HTU21D;54543;50.712;6.070;2023-08-24T06:16:28;20.29;83.05
67748;HTU21D;54543;50.712;6.070;2023-08-24T06:18:54;20.39;82.40
67748;HTU21D;54543;50.712;6.070;2023-08-24T06:21:19;20.47;82.15
67748;HTU21D;54543;50.712;6.070;2023-08-24T06:23:48;20.58;82.10
67748;HTU21D;54543;50.712;6.070;2023-08-24T06:26:17;20.63;81.78
67748;HTU21D;54543;50.712;6.070;2023-08-24T06:28:46;20.73;81.64
67748;HTU21D;54543;50.712;6.070;2023-08-24T06:31:15;20.78;81.38
67748;HTU21D;54543;50.712;6.070;2023-08-24T06:33:51;20.83;81.40
67748;HTU21D;54543;50.712;6.070;2023-08-24T06:36:19;20.87;80.66
67748;HTU21D;54543;50.712;6.070;2023-08-24T06:38:48;20.94;80.81
67748;HTU21D;54543;50.712;6.070;2023-08-24T06:41:19;21.04;81.09
67748;HTU21D;54543;50.712;6.070;2023-08-24T06:43:48;21.13;80.07
67748;HTU21D;54543;50.712;6.070;2023-08-24T06:46:17;21.24;79.98
67748;HTU21D;54543;50.712;6.070;2023-08-24T06:48:44;21.34;79.57
67748;HTU21D;54543;50.712;6.070;2023-08-24T06:51:11;21.45;79.27
67748;HTU21D;54543;50.712;6.070;2023-08-24T06:53:40;21.55;79.01
67748;HTU21D;54543;50.712;6.070;2023-08-24T06:56:08;21.68;78.60
67748;HTU21D;54543;50.712;6.070;2023-08-24T06:58:37;21.79;78.24
67748;HTU21D;54543;50.712;6.070;2023-08-24T07:01:06;21.89;77.89
67748;HTU21D;54543;50.712;6.070;2023-08-24T07:03:37;21.99;77.90
67748;HTU21D;54543;50.712;6.070;2023-08-24T07:06:09;22.12;76.93
67748;HTU21D;54543;50.712;6.070;2023-08-24T07:08:47;22.23;76.79
67748;HTU21D;54543;50.712;6.070;2023-08-24T07:11:14;22.35;76.61
67748;HTU21D;54543;50.712;6.070;2023-08-24T07:13:46;22.49;76.28
67748;HTU21D;54543;50.712;6.070;2023-08-24T07:16:14;22.61;75.81
67748;HTU21D;54543;50.712;6.070;2023-08-24T07:18:43;22.71;74.96
67748;HTU21D;54543;50.712;6.070;2023-08-24T07:21:12;22.83;75.01
67748;HTU21D;54543;50.712;6.070;2023-08-24T07:23:42;22.96;74.43
67748;HTU21D;54543;50.712;6.070;2023-08-24T07:26:10;23.07;74.20
67748;HTU21D;54543;50.712;6.070;2023-08-24T07:28:38;23.15;73.80
67748;HTU21D;54543;50.712;6.070;2023-08-24T07:31:09;23.28;73.27
67748;HTU21D;54543;50.712;6.070;2023-08-24T07:36:27;23.52;72.12
67748;HTU21D;54543;50.712;6.070;2023-08-24T07:38:58;23.67;72.00
67748;HTU21D;54543;50.712;6.070;2023-08-24T07:41:27;23.83;71.84
67748;HTU21D;54543;50.712;6.070;2023-08-24T07:43:56;23.97;71.53
67748;HTU21D;54543;50.712;6.070;2023-08-24T07:46:25;24.11;71.38
67748;HTU21D;54543;50.712;6.070;2023-08-24T07:48:52;24.25;70.65
67748;HTU21D;54543;50.712;6.070;2023-08-24T07:51:21;24.35;69.91
67748;HTU21D;54543;50.712;6.070;2023-08-24T07:53:49;24.45;69.94
67748;HTU21D;54543;50.712;6.070;2023-08-24T07:56:19;24.59;69.43
67748;HTU21D;54543;50.712;6.070;2023-08-24T07:58:44;24.70;69.21
67748;HTU21D;54543;50.712;6.070;2023-08-24T08:01:11;24.80;68.99
67748;HTU21D;54543;50.712;6.070;2023-08-24T08:03:42;24.90;67.80
67748;HTU21D;54543;50.712;6.070;2023-08-24T08:06:09;25.01;68.23
67748;HTU21D;54543;50.712;6.070;2023-08-24T08:08:38;25.13;67.64
67748;HTU21D;54543;50.712;6.070;2023-08-24T08:11:03;25.20;67.75
67748;HTU21D;54543;50.712;6.070;2023-08-24T08:13:29;25.30;67.48
67748;HTU21D;54543;50.712;6.070;2023-08-24T08:16:04;25.36;66.37
67748;HTU21D;54543;50.712;6.070;2023-08-24T08:18:32;25.45;66.98
67748;HTU21D;54543;50.712;6.070;2023-08-24T08:20:59;25.53;66.78
67748;HTU21D;54543;50.712;6.070;2023-08-24T08:23:30;25.68;66.15
67748;HTU21D;54543;50.712;6.070;2023-08-24T08:25:59;25.81;65.59
67748;HTU21D;54543;50.712;6.070;2023-08-24T08:28:26;25.90;65.56
67748;HTU21D;54543;50.712;6.070;2023-08-24T08:30:53;26.01;65.41
67748;HTU21D;54543;50.712;6.070;2023-08-24T08:33:21;26.10;64.83
67748;HTU21D;54543;50.712;6.070;2023-08-24T08:35:47;26.20;64.98
67748;HTU21D;54543;50.712;6.070;2023-08-24T08:38:15;26.33;64.29
67748;HTU21D;54543;50.712;6.070;2023-08-24T08:40:46;26.41;62.82
67748;HTU21D;54543;50.712;6.070;2023-08-24T08:43:15;26.48;63.76
67748;HTU21D;54543;50.712;6.070;2023-08-24T08:45:44;26.61;62.79
67748;HTU21D;54543;50.712;6.070;2023-08-24T08:48:24;26.71;60.54
67748;HTU21D;54543;50.712;6.070;2023-08-24T08:50:51;26.83;62.78
67748;HTU21D;54543;50.712;6.070;2023-08-24T08:53:22;26.90;62.49
67748;HTU21D;54543;50.712;6.070;2023-08-24T08:55:52;26.98;61.42
67748;HTU21D;54543;50.712;6.070;2023-08-24T08:58:36;27.06;59.48
67748;HTU21D;54543;50.712;6.070;2023-08-24T09:01:03;27.08;61.94
67748;HTU21D;54543;50.712;6.070;2023-08-24T09:03:31;27.15;61.93
67748;HTU21D;54543;50.712;6.070;2023-08-24T09:06:13;27.23;59.18
67748;HTU21D;54543;50.712;6.070;2023-08-24T09:08:47;27.40;59.53
67748;HTU21D;54543;50.712;6.070;2023-08-24T09:11:15;27.55;57.87
67748;HTU21D;54543;50.712;6.070;2023-08-24T09:13:43;27.78;60.93
67748;HTU21D;54543;50.712;6.070;2023-08-24T09:16:11;27.97;60.07
67748;HTU21D;54543;50.712;6.070;2023-08-24T09:18:47;28.14;59.52
67748;HTU21D;54543;50.712;6.070;2023-08-24T09:21:25;28.32;57.14
67748;HTU21D;54543;50.712;6.070;2023-08-24T09:26:49;28.41;57.73
67748;HTU21D;54543;50.712;6.070;2023-08-24T09:29:37;28.37;53.11
67748;HTU21D;54543;50.712;6.070;2023-08-24T09:32:28;28.41;55.42
67748;HTU21D;54543;50.712;6.070;2023-08-24T09:37:35;28.54;55.54
67748;HTU21D;54543;50.712;6.070;2023-08-24T09:40:04;28.59;57.45
67748;HTU21D;54543;50.712;6.070;2023-08-24T09:42:38;28.61;55.91
67748;HTU21D;54543;50.712;6.070;2023-08-24T09:48:30;28.71;57.27
67748;HTU21D;54543;50.712;6.070;2023-08-24T09:54:09;28.77;57.45
67748;HTU21D;54543;50.712;6.070;2023-08-24T09:56:41;28.79;55.10
67748;HTU21D;54543;50.712;6.070;2023-08-24T09:59:17;28.80;56.31
67748;HTU21D;54543;50.712;6.070;2023-08-24T10:04:34;28.72;54.24
67748;HTU21D;54543;50.712;6.070;2023-08-24T10:07:19;28.70;54.10
67748;HTU21D;54543;50.712;6.070;2023-08-24T10:16:19;28.42;57.40
67748;HTU21D;54543;50.712;6.070;2023-08-24T10:18:47;28.40;57.55
67748;HTU21D;54543;50.712;6.070;2023-08-24T10:21:18;28.38;56.58
67748;HTU21D;54543;50.712;6.070;2023-08-24T10:23:45;28.33;57.41
67748;HTU21D;54543;50.712;6.070;2023-08-24T10:28:42;28.19;57.55
67748;HTU21D;54543;50.712;6.070;2023-08-24T10:34:43;27.99;56.82
67748;HTU21D;54543;50.712;6.070;2023-08-24T10:37:11;27.95;57.80
67748;HTU21D;54543;50.712;6.070;2023-08-24T10:39:57;27.80;57.54
67748;HTU21D;54543;50.712;6.070;2023-08-24T10:42:44;27.69;58.20
67748;HTU21D;54543;50.712;6.070;2023-08-24T10:48:18;27.41;58.98
67748;HTU21D;54543;50.712;6.070;2023-08-24T10:54:06;27.12;59.45
67748;HTU21D;54543;50.712;6.070;2023-08-24T10:57:08;26.95;59.06
67748;HTU21D;54543;50.712;6.070;2023-08-24T11:02:53;26.52;61.05
67748;HTU21D;54543;50.712;6.070;2023-08-24T11:05:31;26.27;61.81
67748;HTU21D;54543;50.712;6.070;2023-08-24T11:08:01;25.67;69.84
67748;HTU21D;54543;50.712;6.070;2023-08-24T11:10:46;24.73;74.15
67748;HTU21D;54543;50.712;6.070;2023-08-24T11:13:18;23.87;88.12
67748;HTU21D;54543;50.712;6.070;2023-08-24T11:15:56;23.21;82.00
67748;HTU21D;54543;50.712;6.070;2023-08-24T11:18:28;22.72;79.59
67748;HTU21D;54543;50.712;6.070;2023-08-24T11:21:04;22.41;85.48
67748;HTU21D;54543;50.712;6.070;2023-08-24T11:23:34;22.11;87.37
67748;HTU21D;54543;50.712;6.070;2023-08-24T11:26:12;21.92;85.59
67748;HTU21D;54543;50.712;6.070;2023-08-24T11:28:38;21.74;87.96
67748;HTU21D;54543;50.712;6.070;2023-08-24T11:31:04;21.63;84.39
67748;HTU21D;54543;50.712;6.070;2023-08-24T11:33:35;21.53;86.54
67748;HTU21D;54543;50.712;6.070;2023-08-24T11:36:08;21.47;86.90
67748;HTU21D;54543;50.712;6.070;2023-08-24T11:38:40;21.48;89.95
67748;HTU21D;54543;50.712;6.070;2023-08-24T11:41:29;21.46;90.55
67748;HTU21D;54543;50.712;6.070;2023-08-24T11:44:00;21.45;86.22
67748;HTU21D;54543;50.712;6.070;2023-08-24T11:46:28;21.48;86.76
67748;HTU21D;54543;50.712;6.070;2023-08-24T11:48:58;21.47;86.65
67748;HTU21D;54543;50.712;6.070;2023-08-24T11:51:27;21.46;86.70
67748;HTU21D;54543;50.712;6.070;2023-08-24T11:53:55;21.48;86.27
67748;HTU21D;54543;50.712;6.070;2023-08-24T11:56:22;21.45;86.33
67748;HTU21D;54543;50.712;6.070;2023-08-24T11:58:49;21.46;86.08
67748;HTU21D;54543;50.712;6.070;2023-08-24T12:01:18;21.46;86.64
67748;HTU21D;54543;50.712;6.070;2023-08-24T12:03:45;21.48;86.24
67748;HTU21D;54543;50.712;6.070;2023-08-24T12:06:16;21.50;87.17
67748;HTU21D;54543;50.712;6.070;2023-08-24T12:08:45;21.51;86.41
67748;HTU21D;54543;50.712;6.070;2023-08-24T12:11:16;21.54;86.93
67748;HTU21D;54543;50.712;6.070;2023-08-24T12:13:44;21.60;86.28
67748;HTU21D;54543;50.712;6.070;2023-08-24T12:16:15;21.69;86.35
67748;HTU21D;54543;50.712;6.070;2023-08-24T12:18:55;21.81;87.54
67748;HTU21D;54543;50.712;6.070;2023-08-24T12:21:22;21.91;85.00
67748;HTU21D;54543;50.712;6.070;2023-08-24T12:24:06;21.97;85.43
67748;HTU21D;54543;50.712;6.070;2023-08-24T12:26:39;21.96;85.51
67748;HTU21D;54543;50.712;6.070;2023-08-24T12:29:06;21.93;83.87
67748;HTU21D;54543;50.712;6.070;2023-08-24T12:31:42;21.89;84.87
67748;HTU21D;54543;50.712;6.070;2023-08-24T12:34:10;21.84;83.98
67748;HTU21D;54543;50.712;6.070;2023-08-24T12:36:41;21.80;84.87
67748;HTU21D;54543;50.712;6.070;2023-08-24T12:39:19;21.77;85.09
67748;HTU21D;54543;50.712;6.070;2023-08-24T12:41:45;21.72;83.67
67748;HTU21D;54543;50.712;6.070;2023-08-24T12:44:14;21.69;83.46
67748;HTU21D;54543;50.712;6.070;2023-08-24T12:46:43;21.67;83.55
67748;HTU21D;54543;50.712;6.070;2023-08-24T12:49:11;21.66;83.37
67748;HTU21D;54543;50.712;6.070;2023-08-24T12:51:39;21.64;83.12
67748;HTU21D;54543;50.712;6.070;2023-08-24T12:54:09;21.62;83.48
67748;HTU21D;54543;50.712;6.070;2023-08-24T12:56:35;21.59;83.25
67748;HTU21D;54543;50.712;6.070;2023-08-24T12:59:02;21.58;82.97
67748;HTU21D;54543;50.712;6.070;2023-08-24T13:01:37;21.59;84.12
67748;HTU21D;54543;50.712;6.070;2023-08-24T13:04:05;21.59;83.17
67748;HTU21D;54543;50.712;6.070;2023-08-24T13:06:30;21.60;82.87
67748;HTU21D;54543;50.712;6.070;2023-08-24T13:08:58;21.63;82.99
67748;HTU21D;54543;50.712;6.070;2023-08-24T13:11:29;21.64;84.08
67748;HTU21D;54543;50.712;6.070;2023-08-24T13:13:57;21.59;82.57
67748;HTU21D;54543;50.712;6.070;2023-08-24T13:16:23;21.55;82.94
67748;HTU21D;54543;50.712;6.070;2023-08-24T13:18:49;21.50;83.40
67748;HTU21D;54543;50.712;6.070;2023-08-24T13:21:18;21.40;84.92
67748;HTU21D;54543;50.712;6.070;2023-08-24T13:23:49;21.11;86.35
67748;HTU21D;54543;50.712;6.070;2023-08-24T13:26:21;20.90;87.54
67748;HTU21D;54543;50.712;6.070;2023-08-24T13:28:55;20.84;87.59
67748;HTU21D;54543;50.712;6.070;2023-08-24T13:31:22;20.78;86.34
67748;HTU21D;54543;50.712;6.070;2023-08-24T13:33:50;20.70;88.09
67748;HTU21D;54543;50.712;6.070;2023-08-24T13:36:17;20.59;88.37
67748;HTU21D;54543;50.712;6.070;2023-08-24T13:38:44;20.56;89.25
67748;HTU21D;54543;50.712;6.070;2023-08-24T13:41:10;20.56;88.06
67748;HTU21D;54543;50.712;6.070;2023-08-24T13:43:36;20.54;88.18
67748;HTU21D;54543;50.712;6.070;2023-08-24T13:46:02;20.51;88.00
67748;HTU21D;54543;50.712;6.070;2023-08-24T13:48:27;20.44;88.31
67748;HTU21D;54543;50.712;6.070;2023-08-24T13:50:55;20.41;89.00
67748;HTU21D;54543;50.712;6.070;2023-08-24T13:53:22;20.37;88.17
67748;HTU21D;54543;50.712;6.070;2023-08-24T13:55:47;20.35;89.68
67748;HTU21D;54543;50.712;6.070;2023-08-24T13:58:13;20.29;89.73
67748;HTU21D;54543;50.712;6.070;2023-08-24T14:00:38;20.26;89.48
67748;HTU21D;54543;50.712;6.070;2023-08-24T14:03:04;20.25;91.55
67748;HTU21D;54543;50.712;6.070;2023-08-24T14:05:32;20.24;91.49
67748;HTU21D;54543;50.712;6.070;2023-08-24T14:07:57;20.18;92.12
67748;HTU21D;54543;50.712;6.070;2023-08-24T14:10:23;20.15;91.41
67748;HTU21D;54543;50.712;6.070;2023-08-24T14:12:49;20.12;91.59
67748;HTU21D;54543;50.712;6.070;2023-08-24T14:15:14;20.11;91.79
67748;HTU21D;54543;50.712;6.070;2023-08-24T14:17:40;20.09;91.60
67748;HTU21D;54543;50.712;6.070;2023-08-24T14:20:06;20.09;93.02
67748;HTU21D;54543;50.712;6.070;2023-08-24T14:22:31;20.07;93.43
67748;HTU21D;54543;50.712;6.070;2023-08-24T14:24:57;20.05;92.96
67748;HTU21D;54543;50.712;6.070;2023-08-24T14:27:23;20.05;93.56
67748;HTU21D;54543;50.712;6.070;2023-08-24T14:29:49;20.06;92.88
67748;HTU21D;54543;50.712;6.070;2023-08-24T14:32:14;20.10;92.46
67748;HTU21D;54543;50.712;6.070;2023-08-24T14:34:40;20.14;92.12
67748;HTU21D;54543;50.712;6.070;2023-08-24T14:37:05;20.17;91.78
67748;HTU21D;54543;50.712;6.070;2023-08-24T14:39:31;20.21;92.00
67748;HTU21D;54543;50.712;6.070;2023-08-24T14:41:58;20.27;91.51
67748;HTU21D;54543;50.712;6.070;2023-08-24T14:44:23;20.30;91.44
67748;HTU21D;54543;50.712;6.070;2023-08-24T14:46:49;20.32;91.98
67748;HTU21D;54543;50.712;6.070;2023-08-24T14:49:14;20.33;90.99
67748;HTU21D;54543;50.712;6.070;2023-08-24T14:51:44;20.37;91.47
67748;HTU21D;54543;50.712;6.070;2023-08-24T14:54:10;20.39;90.39
67748;HTU21D;54543;50.712;6.070;2023-08-24T14:56:38;20.42;90.21
67748;HTU21D;54543;50.712;6.070;2023-08-24T14:59:05;20.43;91.21
67748;HTU21D;54543;50.712;6.070;2023-08-24T15:01:30;20.42;90.86
67748;HTU21D;54543;50.712;6.070;2023-08-24T15:03:56;20.42;89.89
67748;HTU21D;54543;50.712;6.070;2023-08-24T15:06:22;20.45;89.89
67748;HTU21D;54543;50.712;6.070;2023-08-24T15:08:48;20.49;89.72
67748;HTU21D;54543;50.712;6.070;2023-08-24T15:11:15;20.49;89.61
67748;HTU21D;54543;50.712;6.070;2023-08-24T15:13:41;20.53;89.94
67748;HTU21D;54543;50.712;6.070;2023-08-24T15:16:08;20.54;89.15
67748;HTU21D;54543;50.712;6.070;2023-08-24T15:18:35;20.55;88.95
67748;HTU21D;54543;50.712;6.070;2023-08-24T15:21:01;20.53;88.83
67748;HTU21D;54543;50.712;6.070;2023-08-24T15:23:28;20.55;89.07
67748;HTU21D;54543;50.712;6.070;2023-08-24T15:25:55;20.55;88.80
67748;HTU21D;54543;50.712;6.070;2023-08-24T15:28:21;20.57;88.98
67748;HTU21D;54543;50.712;6.070;2023-08-24T15:30:47;20.59;88.77
67748;HTU21D;54543;50.712;6.070;2023-08-24T15:33:12;20.62;88.73
67748;HTU21D;54543;50.712;6.070;2023-08-24T15:35:42;20.65;89.53
67748;HTU21D;54543;50.712;6.070;2023-08-24T15:38:11;20.68;88.26
67748;HTU21D;54543;50.712;6.070;2023-08-24T15:40:37;20.73;88.41
67748;HTU21D;54543;50.712;6.070;2023-08-24T15:43:04;20.81;88.06
67748;HTU21D;54543;50.712;6.070;2023-08-24T15:45:31;20.89;87.51
67748;HTU21D;54543;50.712;6.070;2023-08-24T15:47:57;20.94;87.06
67748;HTU21D;54543;50.712;6.070;2023-08-24T15:50:23;20.99;86.84
67748;HTU21D;54543;50.712;6.070;2023-08-24T15:52:49;21.02;86.67
67748;HTU21D;54543;50.712;6.070;2023-08-24T15:55:15;21.03;86.68
67748;HTU21D;54543;50.712;6.070;2023-08-24T15:57:40;21.03;86.74
67748;HTU21D;54543;50.712;6.070;2023-08-24T16:00:06;21.06;86.51
67748;HTU21D;54543;50.712;6.070;2023-08-24T16:02:38;21.11;86.52
67748;HTU21D;54543;50.712;6.070;2023-08-24T16:05:04;21.18;86.25